Aérodrome :
LOGIN :

S'inscrire | Disclaimer

   EN    FR    IT 

 










Légende :    VFR   VFR Marginal   IFR   IFR Intensif   IFR Très Intensif
Visi : 
Plafond : 
>= 8 km
>= 3000ft
5 à 8 km
1000 à 3000 ft
1500m à 5 km
500 à 1000 ft
800 à 1500m
200 à 500 ft
< 800m
< 200 ft
Symboles :   Orages  Brouillard  Fortes neiges  Fortes précipitations  Vent > 20 kt
SIGMETs :   Divers  Orages  Givrage  Turbulence  Onde Orograph.  Cendres Volcan.






- Altitude de l'aérodrome : 2220 ft


LOXZ - Zeltweg AB

DERNIER METAR :
  • 231950Z 25009KT 7000 -RA FEW005 SCT017 OVC020 02/01 Q0998

METARs EXPIRÉS :
  • 231850Z 26010KT 7000 -RA FEW005 OVC025 03/02 Q0997 RERA
  • 231750Z 25006KT 7000 RA FEW005 OVC020 04/03 Q0997
  • 231650Z VRB01KT 8000 -RA FEW005 BKN020 OVC025 04/03 Q0997
  • 231550Z 29003KT 250V350 8000 -RA FEW005 BKN020 OVC024 05/04 Q0998
  • 231520Z VRB02KT 8000 -RA FEW005 BKN020 OVC024 05/04 Q0998 NOSIG

TAF TAF LOXZ
Valide du 23 à 12h jusqu'au 23 à 21h UTC


231115Z 2312/2321 VRB03KT 8000 -RA FEW008 SCT030 BKN040
TEMPO 2314/2321 3000 RA FEW005 BKN020



MET'MAP, la Météo Aéronautique d'un coup d'oeil ! - Copyright ORBIFLY Décembre 2007 - Disclaimer

ORBIFLY MET'MAP TEAM :

Programmation & Développement : Alexandra Zaïnal
Sur une idée originale de : Baudouin d'Aumeries
Soutien technique & logistique : Manuel Goepfert
Assistance : Marc-Olivier Méhu




SOURCES & CREDITS :

   NOAA